Time;durP1;ratioP1;P1;durP2;ratioP2;P2;SDS_P1;SDS_P2;PMS_P1;PMS_P2;Temp;Humidity;BMP_temperature;BMP_pressure;BME280_temperature;BME280_humidity;BME280_pressure;Samples;Min_cycle;Max_cycle;Signal;HPM_P1;HPM_P2
2021/07/16 18:15:21;;;;;;;11.05;3.10;;;;;;;31.50;29.51;98570.81;5059291;28;20718;-71
2021/07/16 18:17:46;;;;;;;11.27;3.60;;;;;;;31.39;29.19;98568.56;5059988;28;20025;-70
2021/07/16 18:20:12;;;;;;;70.03;7.43;;;;;;;31.26;29.45;98588.31;5058816;28;20040;-70
2021/07/16 18:22:39;;;;;;;52.50;5.03;;;;;;;31.22;29.94;98595.06;5058632;28;20029;-75
2021/07/16 18:25:06;;;;;;;13.82;3.40;;;;;;;31.11;29.68;98591.94;5059861;28;20102;-76
2021/07/16 18:27:32;;;;;;;15.40;3.85;;;;;;;31.07;29.53;98605.81;5059168;28;20033;-70
2021/07/16 18:29:57;;;;;;;27.38;3.70;;;;;;;31.04;29.39;98606.81;5051514;28;20121;-71
2021/07/16 18:32:23;;;;;;;15.40;3.08;;;;;;;31.15;29.30;98614.84;5051146;28;20059;-69
2021/07/16 18:34:49;;;;;;;10.32;3.40;;;;;;;31.08;28.89;98613.97;5051631;28;20111;-70
2021/07/16 18:37:14;;;;;;;10.23;3.33;;;;;;;30.95;29.44;98617.16;5053093;28;20486;-74
2021/07/16 18:39:42;;;;;;;9.30;3.08;;;;;;;30.92;29.68;98628.88;5057423;28;20068;-74
2021/07/16 18:42:08;;;;;;;15.48;4.30;;;;;;;30.83;29.99;98632.66;5046955;28;20086;-74
2021/07/16 18:44:34;;;;;;;9.18;4.28;;;;;;;30.67;30.33;98636.81;5052510;28;20375;-74
2021/07/16 18:47:00;;;;;;;13.38;4.78;;;;;;;30.52;29.60;98634.69;5064540;28;20477;-74
2021/07/16 18:49:26;;;;;;;7.00;4.43;;;;;;;30.54;30.00;98645.72;5057535;28;20032;-70
2021/07/16 18:51:52;;;;;;;8.65;4.13;;;;;;;30.44;30.08;98650.75;5049647;28;20029;-70
2021/07/16 18:54:17;;;;;;;17.80;4.90;;;;;;;30.36;29.34;98658.22;5044866;28;20049;-70
2021/07/16 18:56:43;;;;;;;14.00;3.88;;;;;;;30.40;29.58;98659.59;5055380;28;20478;-70
2021/07/16 18:59:08;;;;;;;7.72;3.35;;;;;;;30.39;30.06;98658.00;5052288;28;20051;-71
2021/07/16 19:01:35;;;;;;;17.75;3.30;;;;;;;30.39;29.46;98668.75;5053033;28;20013;-71
2021/07/16 19:04:02;;;;;;;10.68;2.95;;;;;;;30.35;29.13;98668.94;5047755;28;20029;-70
2021/07/16 19:06:27;;;;;;;11.82;3.47;;;;;;;30.36;29.01;98675.50;5047373;28;20025;-71
2021/07/16 19:08:54;;;;;;;15.02;4.43;;;;;;;30.32;28.78;98672.81;5046463;28;20465;-71
2021/07/16 19:11:20;;;;;;;7.95;2.83;;;;;;;30.12;29.36;98677.09;5044715;28;20075;-70
2021/07/16 19:13:45;;;;;;;12.63;3.30;;;;;;;30.07;28.73;98680.66;5050463;28;20429;-69
2021/07/16 19:16:11;;;;;;;12.68;2.80;;;;;;;30.05;28.86;98673.78;5045522;28;20112;-69
2021/07/16 19:18:37;;;;;;;10.07;3.63;;;;;;;29.78;29.34;98684.94;5048229;28;20031;-73
2021/07/16 19:21:02;;;;;;;8.63;3.00;;;;;;;29.79;29.01;98692.28;5049143;28;20509;-70
2021/07/16 19:23:30;;;;;;;10.98;3.30;;;;;;;29.75;28.91;98699.53;5046908;28;20591;-73
2021/07/16 19:25:56;;;;;;;12.93;2.85;;;;;;;29.73;29.06;98690.56;5039464;28;20025;-69
2021/07/16 19:28:21;;;;;;;4.72;3.13;;;;;;;29.82;28.40;98690.53;5033244;28;20125;-70
2021/07/16 19:30:47;;;;;;;13.00;3.33;;;;;;;29.74;28.63;98681.44;5036133;28;20037;-71
2021/07/16 19:33:15;;;;;;;12.82;4.68;;;;;;;29.67;29.25;98697.00;5033611;28;20116;-73
2021/07/16 19:35:41;;;;;;;8.30;3.75;;;;;;;29.69;29.08;98700.19;5037472;28;20061;-69
2021/07/16 19:38:07;;;;;;;18.23;4.50;;;;;;;29.57;29.29;98704.06;5037767;28;20037;-70
2021/07/16 19:40:33;;;;;;;17.85;5.28;;;;;;;29.40;30.04;98698.66;5034355;28;20420;-69
2021/07/16 19:42:58;;;;;;;8.45;4.28;;;;;;;29.44;29.75;98707.13;5033352;28;20505;-69
2021/07/16 19:45:24;;;;;;;9.75;3.70;;;;;;;29.44;30.09;98715.00;5040805;28;20056;-69
2021/07/16 19:47:50;;;;;;;10.02;3.28;;;;;;;29.20;31.23;98716.47;5040266;28;20092;-72
2021/07/16 19:50:16;;;;;;;9.63;3.35;;;;;;;29.03;31.85;98723.81;5033782;28;20048;-69
2021/07/16 19:52:42;;;;;;;14.32;2.80;;;;;;;28.99;32.20;98715.34;5032560;28;20484;-69
2021/07/16 19:55:09;;;;;;;11.82;4.15;;;;;;;28.87;31.78;98708.50;5034246;28;20128;-69
2021/07/16 19:57:35;;;;;;;8.80;3.67;;;;;;;28.78;32.10;98711.34;5035084;28;20026;-69
2021/07/16 20:00:00;;;;;;;7.40;3.25;;;;;;;28.62;32.50;98709.56;5043139;28;20017;-73
2021/07/16 20:02:26;;;;;;;9.32;3.03;;;;;;;28.56;32.94;98713.09;5040171;28;20026;-69
2021/07/16 20:04:52;;;;;;;6.88;3.40;;;;;;;28.51;32.61;98707.19;5034688;28;20048;-69
2021/07/16 20:07:17;;;;;;;10.27;3.20;;;;;;;28.36;32.68;98707.00;5036838;28;20021;-69
2021/07/16 20:09:44;;;;;;;9.57;3.72;;;;;;;28.27;33.03;98711.44;5035689;28;20521;-72
2021/07/16 20:12:10;;;;;;;12.57;3.33;;;;;;;28.32;33.09;98707.13;5042279;28;20044;-69
2021/07/16 20:14:39;;;;;;;8.18;3.10;;;;;;;28.17;33.51;98713.50;5049054;28;20060;-72
2021/07/16 20:17:08;;;;;;;11.03;2.87;;;;;;;28.15;33.32;98716.03;5036270;28;20029;-68
2021/07/16 20:19:36;;;;;;;7.82;3.08;;;;;;;28.23;33.13;98725.19;5033506;28;20025;-69
2021/07/16 20:22:08;;;;;;;16.95;3.40;;;;;;;28.24;33.00;98728.84;5044522;28;20060;-69
2021/07/16 20:24:34;;;;;;;6.35;3.20;;;;;;;28.21;33.15;98726.91;5034186;28;20109;-72
2021/07/16 20:26:59;;;;;;;12.85;3.22;;;;;;;28.05;33.58;98734.50;5037830;28;20472;-72
2021/07/16 20:29:26;;;;;;;8.85;3.28;;;;;;;28.05;33.46;98731.63;5033786;28;20033;-69
2021/07/16 20:31:51;;;;;;;10.35;3.50;;;;;;;27.94;33.65;98732.09;5030756;28;20481;-69
2021/07/16 20:34:17;;;;;;;12.77;2.92;;;;;;;27.84;33.91;98739.84;5031936;28;20064;-69
2021/07/16 20:36:42;;;;;;;9.20;3.92;;;;;;;27.87;33.83;98741.81;5037087;28;20029;-70
2021/07/16 20:39:08;;;;;;;8.57;2.75;;;;;;;27.87;34.21;98735.25;5040180;28;20079;-70
2021/07/16 20:41:33;;;;;;;5.85;3.13;;;;;;;27.77;34.13;98734.41;5031654;28;20029;-69
2021/07/16 20:43:59;;;;;;;8.98;3.65;;;;;;;27.74;34.40;98741.91;5034215;28;20111;-69
2021/07/16 20:46:25;;;;;;;12.95;3.42;;;;;;;27.72;34.48;98749.38;5038493;28;20421;-72
2021/07/16 20:48:50;;;;;;;5.53;3.45;;;;;;;27.62;34.64;98757.16;5034377;28;20111;-69
2021/07/16 20:51:16;;;;;;;11.60;3.38;;;;;;;27.63;34.48;98750.13;5044077;28;20095;-68
2021/07/16 20:53:43;;;;;;;15.18;3.25;;;;;;;27.58;34.64;98751.53;5032473;28;20021;-73
2021/07/16 20:56:10;;;;;;;27.73;3.85;;;;;;;27.59;34.53;98756.00;5031450;28;20061;-72
2021/07/16 20:58:36;;;;;;;7.85;3.47;;;;;;;27.51;34.87;98753.88;5032543;28;20446;-71
2021/07/16 21:01:03;;;;;;;8.63;3.40;;;;;;;27.44;34.61;98761.47;5048291;28;20405;-72
2021/07/16 21:03:28;;;;;;;6.35;3.20;;;;;;;27.54;34.59;98771.00;5046344;28;20029;-69
2021/07/16 21:05:55;;;;;;;9.13;2.92;;;;;;;27.41;34.95;98767.38;5037638;28;20025;-69
2021/07/16 21:08:21;;;;;;;11.75;3.60;;;;;;;27.39;34.86;98764.13;5040144;28;20068;-69
2021/07/16 21:10:46;;;;;;;10.73;3.60;;;;;;;27.34;35.40;98762.69;5042240;28;20064;-72
2021/07/16 21:13:11;;;;;;;19.08;3.20;;;;;;;27.33;34.97;98761.06;5048573;28;20053;-68
2021/07/16 21:15:37;;;;;;;5.97;2.92;;;;;;;27.30;35.40;98762.84;5046220;28;20489;-69
2021/07/16 21:18:03;;;;;;;16.15;3.53;;;;;;;27.26;35.51;98767.88;5035435;28;20034;-70
2021/07/16 21:20:29;;;;;;;15.18;3.78;;;;;;;27.28;35.60;98765.38;5038758;28;20044;-72
2021/07/16 21:22:55;;;;;;;5.47;2.88;;;;;;;27.15;35.72;98767.47;5036177;28;20037;-72
2021/07/16 21:25:21;;;;;;;9.75;3.53;;;;;;;27.24;35.34;98766.78;5033714;28;20037;-72
2021/07/16 21:27:46;;;;;;;11.68;3.20;;;;;;;27.32;35.24;98771.78;5045399;28;20036;-71
2021/07/16 21:30:12;;;;;;;6.18;3.08;;;;;;;27.32;35.64;98771.78;5041791;28;20122;-72
2021/07/16 21:32:37;;;;;;;9.80;3.03;;;;;;;27.40;35.44;98772.28;5038641;28;20041;-72
2021/07/16 21:35:05;;;;;;;14.70;3.65;;;;;;;27.39;35.68;98776.44;5035533;28;20099;-72
2021/07/16 21:37:30;;;;;;;10.93;4.00;;;;;;;27.17;36.00;98779.31;5030583;28;20025;-72
2021/07/16 21:39:56;;;;;;;17.13;4.70;;;;;;;27.20;35.93;98781.25;5030392;28;20388;-69
2021/07/16 21:42:21;;;;;;;8.60;4.20;;;;;;;27.18;36.20;98783.78;5037189;28;20029;-72
2021/07/16 21:44:46;;;;;;;13.55;4.00;;;;;;;27.19;36.03;98782.53;5038780;28;20434;-72
2021/07/16 21:47:12;;;;;;;12.07;3.55;;;;;;;27.23;35.85;98799.63;5035797;28;20021;-71
2021/07/16 21:49:38;;;;;;;16.70;4.10;;;;;;;27.13;36.21;98793.78;5041804;28;20023;-69
2021/07/16 21:52:04;;;;;;;7.95;3.85;;;;;;;26.99;36.57;98797.19;5033156;28;20030;-69
2021/07/16 21:54:30;;;;;;;7.75;3.97;;;;;;;27.02;36.59;98799.13;5040734;28;20024;-72
2021/07/16 21:56:55;;;;;;;12.80;3.28;;;;;;;26.96;36.81;98796.03;5038400;28;20029;-72
2021/07/16 21:59:21;;;;;;;5.97;3.45;;;;;;;26.96;36.91;98798.91;5037699;28;20075;-69
2021/07/16 22:01:47;;;;;;;13.88;3.67;;;;;;;26.66;37.58;98795.41;5037862;28;20025;-72
2021/07/16 22:04:15;;;;;;;11.98;5.03;;;;;;;26.60;37.61;98786.59;5031488;28;20025;-72
2021/07/16 22:06:41;;;;;;;16.42;6.03;;;;;;;26.59;37.67;98795.66;5034287;28;20522;-69
2021/07/16 22:09:07;;;;;;;11.55;4.63;;;;;;;26.79;37.72;98792.50;5032437;28;20029;-72
2021/07/16 22:11:32;;;;;;;11.13;5.50;;;;;;;26.81;37.63;98795.72;5048672;28;20064;-72
2021/07/16 22:13:58;;;;;;;15.73;4.72;;;;;;;26.88;37.72;98795.50;5049902;28;20076;-69
2021/07/16 22:16:23;;;;;;;8.98;4.78;;;;;;;26.91;37.55;98805.25;5048869;28;20033;-72
2021/07/16 22:18:48;;;;;;;10.73;5.63;;;;;;;26.90;37.26;98792.16;5046861;28;20036;-71
2021/07/16 22:21:14;;;;;;;11.32;4.70;;;;;;;26.85;36.97;98793.53;5041084;28;20029;-72
2021/07/16 22:23:40;;;;;;;16.55;5.03;;;;;;;26.54;37.82;98796.22;5039158;28;20374;-69
2021/07/16 22:26:07;;;;;;;12.43;5.15;;;;;;;26.20;38.46;98796.53;5041546;28;20033;-71
2021/07/16 22:28:34;;;;;;;17.70;6.75;;;;;;;26.16;38.67;98798.66;5030863;28;20052;-72
2021/07/16 22:30:59;;;;;;;14.98;5.25;;;;;;;26.45;38.24;98794.06;5049192;28;20055;-71
2021/07/16 22:33:25;;;;;;;11.73;4.88;;;;;;;26.31;38.46;98798.25;5048908;28;20135;-70
2021/07/16 22:35:51;;;;;;;10.23;5.53;;;;;;;26.42;38.58;98807.25;5045945;28;20033;-69
2021/07/16 22:38:16;;;;;;;10.77;5.55;;;;;;;26.55;38.49;98800.72;5037367;28;20037;-72
2021/07/16 22:40:42;;;;;;;16.00;5.90;;;;;;;26.61;38.29;98801.72;5036528;28;20063;-72
2021/07/16 22:43:07;;;;;;;12.20;5.57;;;;;;;26.81;38.14;98798.56;5035034;28;20034;-70
2021/07/16 22:45:33;;;;;;;15.85;5.05;;;;;;;26.64;37.97;98800.81;5033125;28;20045;-72
2021/07/16 22:47:58;;;;;;;8.95;4.65;;;;;;;26.66;38.39;98791.75;5035155;28;20029;-72
2021/07/16 22:50:24;;;;;;;16.60;5.10;;;;;;;26.60;38.00;98791.53;5039944;28;20065;-71
2021/07/16 22:52:49;;;;;;;13.18;6.15;;;;;;;26.48;38.62;98802.56;5042033;28;20059;-72
2021/07/16 22:55:15;;;;;;;14.55;5.32;;;;;;;26.51;38.57;98794.28;5033834;28;20503;-72
2021/07/16 22:57:41;;;;;;;15.23;4.95;;;;;;;26.48;39.29;98802.56;5046024;28;20025;-69
2021/07/16 23:00:11;;;;;;;14.93;5.35;;;;;;;26.32;38.99;98799.84;5050320;28;20033;-69
2021/07/16 23:02:36;;;;;;;;;;;;;;;26.14;39.52;98794.66;5054057;28;20159;-69
2021/07/16 23:05:04;;;;;;;14.07;5.82;;;;;;;26.07;39.65;98792.84;5044703;28;20055;-72
2021/07/16 23:07:29;;;;;;;15.75;6.68;;;;;;;26.06;39.65;98794.06;5036764;28;20029;-68
2021/07/16 23:09:55;;;;;;;15.02;7.60;;;;;;;26.04;39.44;98790.88;5042833;28;20071;-72
2021/07/16 23:12:20;;;;;;;17.33;7.72;;;;;;;26.03;39.58;98795.00;5051142;28;20029;-72
2021/07/16 23:14:45;;;;;;;18.75;5.78;;;;;;;25.85;39.98;98802.09;5041466;28;20049;-69
2021/07/16 23:17:11;;;;;;;13.30;5.50;;;;;;;25.93;39.94;98794.88;5043813;28;20029;-69
2021/07/16 23:19:36;;;;;;;12.43;5.60;;;;;;;25.57;41.02;98804.56;5038736;28;20387;-69
2021/07/16 23:22:02;;;;;;;20.83;5.38;;;;;;;25.64;40.62;98803.53;5041223;28;20033;-68
2021/07/16 23:24:27;;;;;;;11.50;5.63;;;;;;;25.70;40.38;98795.19;5040977;28;20040;-68
2021/07/16 23:26:53;;;;;;;11.98;5.65;;;;;;;25.45;41.66;98811.00;5046806;28;20552;-72
2021/07/16 23:29:18;;;;;;;15.73;6.32;;;;;;;25.58;41.45;98811.09;5049787;28;20032;-72
2021/07/16 23:31:44;;;;;;;16.35;5.80;;;;;;;25.53;42.00;98811.66;5042397;28;20029;-72
2021/07/16 23:34:09;;;;;;;18.38;5.50;;;;;;;25.63;41.34;98813.38;5047218;28;20556;-72
2021/07/16 23:36:35;;;;;;;10.48;5.20;;;;;;;25.47;41.70;98805.66;5049678;28;20434;-68
2021/07/16 23:39:00;;;;;;;15.23;5.03;;;;;;;25.55;41.34;98812.00;5046567;28;20017;-71
2021/07/16 23:41:26;;;;;;;13.00;5.43;;;;;;;25.54;41.57;98804.69;5044305;28;20037;-72
2021/07/16 23:43:51;;;;;;;12.63;5.28;;;;;;;25.38;42.13;98804.25;5036010;28;20045;-71
2021/07/16 23:46:17;;;;;;;12.80;5.15;;;;;;;25.05;42.59;98803.56;5052506;28;20426;-71
2021/07/16 23:48:42;;;;;;;10.13;4.93;;;;;;;24.78;43.26;98799.78;5049570;28;20493;-71
2021/07/16 23:51:08;;;;;;;18.42;6.22;;;;;;;24.45;43.99;98801.84;5041881;28;20112;-71
2021/07/16 23:53:33;;;;;;;13.98;5.20;;;;;;;24.32;44.56;98801.75;5049641;28;20052;-71
2021/07/16 23:55:58;;;;;;;17.95;5.47;;;;;;;24.36;44.79;98805.31;5052743;28;20037;-68
2021/07/16 23:58:24;;;;;;;9.43;5.15;;;;;;;24.61;43.80;98809.59;5049276;28;20021;-71
